sensor_id;sensor_type;location;lat;lon;timestamp;pressure;altitude;pressure_sealevel;temperature;humidity
26807;BME280;14380;49.910;6.792;2024-02-26T00:01:04;96766.06;;;8.55;95.29
26807;BME280;14380;49.910;6.792;2024-02-26T00:03:30;96771.16;;;8.80;95.12
26807;BME280;14380;49.910;6.792;2024-02-26T00:06:01;96767.66;;;8.79;96.41
26807;BME280;14380;49.910;6.792;2024-02-26T00:08:27;96774.28;;;8.51;98.58
26807;BME280;14380;49.910;6.792;2024-02-26T00:10:54;96778.25;;;8.56;100.00
26807;BME280;14380;49.910;6.792;2024-02-26T00:13:20;96768.28;;;8.71;100.00
26807;BME280;14380;49.910;6.792;2024-02-26T00:15:49;96763.97;;;8.82;100.00
26807;BME280;14380;49.910;6.792;2024-02-26T00:18:15;96765.06;;;8.45;100.00
26807;BME280;14380;49.910;6.792;2024-02-26T00:20:42;96769.03;;;8.28;100.00
26807;BME280;14380;49.910;6.792;2024-02-26T00:23:09;96761.59;;;8.10;100.00
26807;BME280;14380;49.910;6.792;2024-02-26T00:25:36;96765.78;;;8.01;100.00
26807;BME280;14380;49.910;6.792;2024-02-26T00:28:03;96769.63;;;8.31;100.00
26807;BME280;14380;49.910;6.792;2024-02-26T00:30:30;96777.38;;;8.44;97.06
26807;BME280;14380;49.910;6.792;2024-02-26T00:32:58;96766.28;;;8.52;100.00
26807;BME280;14380;49.910;6.792;2024-02-26T00:35:24;96768.41;;;8.70;90.57
26807;BME280;14380;49.910;6.792;2024-02-26T00:37:51;96767.97;;;8.97;91.63
26807;BME280;14380;49.910;6.792;2024-02-26T00:40:17;96763.63;;;8.63;98.92
26807;BME280;14380;49.910;6.792;2024-02-26T00:42:44;96765.75;;;8.81;98.60
26807;BME280;14380;49.910;6.792;2024-02-26T00:45:13;96772.22;;;8.77;100.00
26807;BME280;14380;49.910;6.792;2024-02-26T00:47:39;96766.13;;;8.76;100.00
26807;BME280;14380;49.910;6.792;2024-02-26T00:50:09;96764.00;;;8.70;97.25
26807;BME280;14380;49.910;6.792;2024-02-26T00:52:37;96763.19;;;8.13;99.19
26807;BME280;14380;49.910;6.792;2024-02-26T00:55:05;96770.75;;;8.84;99.27
26807;BME280;14380;49.910;6.792;2024-02-26T00:57:32;96766.53;;;9.04;100.00
26807;BME280;14380;49.910;6.792;2024-02-26T00:59:59;96767.09;;;8.75;100.00
26807;BME280;14380;49.910;6.792;2024-02-26T01:02:26;96766.06;;;8.88;100.00
26807;BME280;14380;49.910;6.792;2024-02-26T01:04:52;96773.81;;;8.57;100.00
26807;BME280;14380;49.910;6.792;2024-02-26T01:07:21;96762.78;;;8.74;100.00
26807;BME280;14380;49.910;6.792;2024-02-26T01:09:47;96768.78;;;8.65;100.00
26807;BME280;14380;49.910;6.792;2024-02-26T01:12:14;96769.44;;;8.90;100.00
26807;BME280;14380;49.910;6.792;2024-02-26T01:14:40;96769.97;;;8.72;100.00
26807;BME280;14380;49.910;6.792;2024-02-26T01:17:07;96761.34;;;8.82;100.00
26807;BME280;14380;49.910;6.792;2024-02-26T01:19:33;96765.16;;;8.77;100.00
26807;BME280;14380;49.910;6.792;2024-02-26T01:22:00;96768.69;;;8.55;100.00
26807;BME280;14380;49.910;6.792;2024-02-26T01:24:29;96776.03;;;8.73;100.00
26807;BME280;14380;49.910;6.792;2024-02-26T01:26:55;96769.47;;;8.78;100.00
26807;BME280;14380;49.910;6.792;2024-02-26T01:29:22;96773.66;;;8.70;100.00
26807;BME280;14380;49.910;6.792;2024-02-26T01:31:49;96778.84;;;9.04;100.00
26807;BME280;14380;49.910;6.792;2024-02-26T01:34:15;96778.00;;;9.03;100.00
26807;BME280;14380;49.910;6.792;2024-02-26T01:36:43;96775.00;;;8.64;100.00
26807;BME280;14380;49.910;6.792;2024-02-26T01:39:10;96771.63;;;8.73;100.00
26807;BME280;14380;49.910;6.792;2024-02-26T01:41:40;96773.31;;;8.63;100.00
26807;BME280;14380;49.910;6.792;2024-02-26T01:44:06;96767.69;;;8.68;100.00
26807;BME280;14380;49.910;6.792;2024-02-26T01:46:34;96771.88;;;8.82;100.00
26807;BME280;14380;49.910;6.792;2024-02-26T01:49:02;96762.16;;;8.82;100.00
26807;BME280;14380;49.910;6.792;2024-02-26T01:51:31;96765.66;;;8.71;100.00
26807;BME280;14380;49.910;6.792;2024-02-26T01:53:59;96763.75;;;8.62;100.00
26807;BME280;14380;49.910;6.792;2024-02-26T01:56:28;96760.88;;;8.65;100.00
26807;BME280;14380;49.910;6.792;2024-02-26T01:58:58;96758.13;;;8.67;100.00
26807;BME280;14380;49.910;6.792;2024-02-26T02:01:27;96762.81;;;8.29;100.00
26807;BME280;14380;49.910;6.792;2024-02-26T02:03:54;96763.41;;;8.55;100.00
26807;BME280;14380;49.910;6.792;2024-02-26T02:06:22;96761.72;;;8.31;100.00
26807;BME280;14380;49.910;6.792;2024-02-26T02:08:49;96759.81;;;8.45;100.00
26807;BME280;14380;49.910;6.792;2024-02-26T02:11:16;96762.91;;;8.39;100.00
26807;BME280;14380;49.910;6.792;2024-02-26T02:13:43;96762.19;;;8.71;100.00
26807;BME280;14380;49.910;6.792;2024-02-26T02:16:11;96770.31;;;8.68;100.00
26807;BME280;14380;49.910;6.792;2024-02-26T02:18:38;96762.19;;;8.48;100.00
26807;BME280;14380;49.910;6.792;2024-02-26T02:21:06;96757.53;;;8.40;100.00
26807;BME280;14380;49.910;6.792;2024-02-26T02:23:33;96754.56;;;8.45;100.00
26807;BME280;14380;49.910;6.792;2024-02-26T02:25:59;96751.00;;;8.12;100.00
26807;BME280;14380;49.910;6.792;2024-02-26T02:28:27;96754.06;;;8.28;100.00
26807;BME280;14380;49.910;6.792;2024-02-26T02:30:54;96748.81;;;8.40;100.00
26807;BME280;14380;49.910;6.792;2024-02-26T02:33:21;96752.06;;;8.21;100.00
26807;BME280;14380;49.910;6.792;2024-02-26T02:35:48;96742.38;;;8.21;100.00
26807;BME280;14380;49.910;6.792;2024-02-26T02:38:17;96745.72;;;8.12;100.00
26807;BME280;14380;49.910;6.792;2024-02-26T02:40:44;96740.00;;;8.07;100.00
26807;BME280;14380;49.910;6.792;2024-02-26T02:43:11;96731.59;;;8.36;100.00
26807;BME280;14380;49.910;6.792;2024-02-26T02:45:38;96726.25;;;8.37;100.00
26807;BME280;14380;49.910;6.792;2024-02-26T02:48:05;96727.44;;;8.22;100.00
26807;BME280;14380;49.910;6.792;2024-02-26T02:50:32;96721.13;;;8.01;100.00
26807;BME280;14380;49.910;6.792;2024-02-26T02:52:58;96728.97;;;8.24;100.00
26807;BME280;14380;49.910;6.792;2024-02-26T02:55:27;96725.66;;;8.11;100.00
26807;BME280;14380;49.910;6.792;2024-02-26T02:57:53;96730.41;;;8.28;100.00
26807;BME280;14380;49.910;6.792;2024-02-26T03:00:20;96728.16;;;8.24;100.00
26807;BME280;14380;49.910;6.792;2024-02-26T03:02:48;96723.50;;;8.16;100.00
26807;BME280;14380;49.910;6.792;2024-02-26T03:05:15;96720.28;;;8.12;100.00
26807;BME280;14380;49.910;6.792;2024-02-26T03:07:41;96725.06;;;8.18;100.00
26807;BME280;14380;49.910;6.792;2024-02-26T03:10:08;96723.25;;;8.30;100.00
26807;BME280;14380;49.910;6.792;2024-02-26T03:12:36;96724.28;;;8.39;100.00
26807;BME280;14380;49.910;6.792;2024-02-26T03:15:03;96724.47;;;8.15;100.00
26807;BME280;14380;49.910;6.792;2024-02-26T03:17:30;96723.97;;;8.32;100.00
26807;BME280;14380;49.910;6.792;2024-02-26T03:19:56;96727.44;;;8.33;100.00
26807;BME280;14380;49.910;6.792;2024-02-26T03:22:23;96723.13;;;8.09;100.00
26807;BME280;14380;49.910;6.792;2024-02-26T03:24:49;96722.06;;;8.00;100.00
26807;BME280;14380;49.910;6.792;2024-02-26T03:27:16;96734.03;;;8.16;100.00
26807;BME280;14380;49.910;6.792;2024-02-26T03:29:44;96732.94;;;8.18;100.00
26807;BME280;14380;49.910;6.792;2024-02-26T03:32:10;96742.50;;;8.31;100.00
26807;BME280;14380;49.910;6.792;2024-02-26T03:34:37;96730.41;;;8.28;100.00
26807;BME280;14380;49.910;6.792;2024-02-26T03:37:05;96724.81;;;8.10;100.00
26807;BME280;14380;49.910;6.792;2024-02-26T03:39:32;96745.00;;;8.21;100.00
26807;BME280;14380;49.910;6.792;2024-02-26T03:41:59;96735.44;;;8.43;100.00
26807;BME280;14380;49.910;6.792;2024-02-26T03:44:26;96735.09;;;8.25;100.00
26807;BME280;14380;49.910;6.792;2024-02-26T03:46:53;96736.38;;;8.19;100.00
26807;BME280;14380;49.910;6.792;2024-02-26T03:49:20;96728.97;;;8.24;100.00
26807;BME280;14380;49.910;6.792;2024-02-26T03:51:47;96723.97;;;7.98;100.00
26807;BME280;14380;49.910;6.792;2024-02-26T03:54:14;96734.59;;;8.08;100.00
26807;BME280;14380;49.910;6.792;2024-02-26T03:56:41;96730.53;;;8.04;100.00
26807;BME280;14380;49.910;6.792;2024-02-26T03:59:07;96729.09;;;8.00;100.00
26807;BME280;14380;49.910;6.792;2024-02-26T04:01:34;96735.94;;;8.14;100.00
26807;BME280;14380;49.910;6.792;2024-02-26T04:04:02;96732.69;;;8.22;100.00
26807;BME280;14380;49.910;6.792;2024-02-26T04:06:28;96733.84;;;8.40;100.00
26807;BME280;14380;49.910;6.792;2024-02-26T04:08:55;96739.13;;;8.40;100.00
26807;BME280;14380;49.910;6.792;2024-02-26T04:11:22;96739.38;;;8.03;100.00
26807;BME280;14380;49.910;6.792;2024-02-26T04:13:48;96730.19;;;8.20;100.00
26807;BME280;14380;49.910;6.792;2024-02-26T04:16:17;96733.91;;;8.17;100.00
26807;BME280;14380;49.910;6.792;2024-02-26T04:18:44;96734.84;;;8.16;100.00
26807;BME280;14380;49.910;6.792;2024-02-26T04:21:12;96740.22;;;8.03;100.00
26807;BME280;14380;49.910;6.792;2024-02-26T04:23:38;96741.16;;;8.25;100.00
26807;BME280;14380;49.910;6.792;2024-02-26T04:26:05;96738.91;;;7.98;100.00
26807;BME280;14380;49.910;6.792;2024-02-26T04:28:31;96748.13;;;8.15;100.00
26807;BME280;14380;49.910;6.792;2024-02-26T04:30:58;96745.00;;;8.21;100.00
26807;BME280;14380;49.910;6.792;2024-02-26T04:33:24;96739.88;;;8.19;100.00
26807;BME280;14380;49.910;6.792;2024-02-26T04:35:51;96744.88;;;8.34;100.00
26807;BME280;14380;49.910;6.792;2024-02-26T04:38:19;96751.72;;;8.14;100.00
26807;BME280;14380;49.910;6.792;2024-02-26T04:40:45;96746.31;;;8.38;100.00
26807;BME280;14380;49.910;6.792;2024-02-26T04:43:12;96752.53;;;8.14;100.00
26807;BME280;14380;49.910;6.792;2024-02-26T04:45:38;96760.31;;;8.04;100.00
26807;BME280;14380;49.910;6.792;2024-02-26T04:48:05;96760.53;;;7.90;100.00
26807;BME280;14380;49.910;6.792;2024-02-26T04:50:32;96760.53;;;7.90;100.00
26807;BME280;14380;49.910;6.792;2024-02-26T04:52:59;96755.75;;;8.41;100.00
26807;BME280;14380;49.910;6.792;2024-02-26T04:55:27;96759.00;;;8.33;100.00
26807;BME280;14380;49.910;6.792;2024-02-26T04:57:52;96755.03;;;8.27;100.00
26807;BME280;14380;49.910;6.792;2024-02-26T05:00:19;96763.75;;;8.05;100.00
26807;BME280;14380;49.910;6.792;2024-02-26T05:02:46;96765.56;;;8.16;100.00
26807;BME280;14380;49.910;6.792;2024-02-26T05:05:13;96762.34;;;8.24;100.00
26807;BME280;14380;49.910;6.792;2024-02-26T05:07:40;96760.66;;;8.34;100.00
26807;BME280;14380;49.910;6.792;2024-02-26T05:10:09;96765.78;;;8.24;100.00
26807;BME280;14380;49.910;6.792;2024-02-26T05:12:41;96764.47;;;8.53;100.00
26807;BME280;14380;49.910;6.792;2024-02-26T05:15:10;96765.31;;;8.42;100.00
26807;BME280;14380;49.910;6.792;2024-02-26T05:17:44;96763.41;;;8.32;100.00
26807;BME280;14380;49.910;6.792;2024-02-26T05:20:13;96769.97;;;8.27;100.00
26807;BME280;14380;49.910;6.792;2024-02-26T05:22:42;96767.22;;;8.40;100.00
26807;BME280;14380;49.910;6.792;2024-02-26T05:25:11;96770.91;;;8.03;100.00
26807;BME280;14380;49.910;6.792;2024-02-26T05:27:41;96770.69;;;8.06;100.00
26807;BME280;14380;49.910;6.792;2024-02-26T05:30:10;96775.00;;;8.18;100.00
26807;BME280;14380;49.910;6.792;2024-02-26T05:32:37;96775.00;;;8.30;100.00
26807;BME280;14380;49.910;6.792;2024-02-26T05:35:04;96776.81;;;8.52;100.00
26807;BME280;14380;49.910;6.792;2024-02-26T05:37:31;96771.53;;;8.41;100.00
26807;BME280;14380;49.910;6.792;2024-02-26T05:39:59;96779.31;;;8.19;100.00
26807;BME280;14380;49.910;6.792;2024-02-26T05:42:25;96775.94;;;8.17;100.00
26807;BME280;14380;49.910;6.792;2024-02-26T05:44:53;96784.31;;;8.34;100.00
26807;BME280;14380;49.910;6.792;2024-02-26T05:47:20;96783.34;;;8.46;100.00
26807;BME280;14380;49.910;6.792;2024-02-26T05:49:46;96780.22;;;8.41;100.00
26807;BME280;14380;49.910;6.792;2024-02-26T05:52:14;96783.38;;;8.35;100.00
26807;BME280;14380;49.910;6.792;2024-02-26T05:54:40;96787.53;;;8.26;100.00
26807;BME280;14380;49.910;6.792;2024-02-26T05:57:07;96783.72;;;8.30;100.00
26807;BME280;14380;49.910;6.792;2024-02-26T05:59:33;96786.34;;;8.30;100.00
26807;BME280;14380;49.910;6.792;2024-02-26T06:02:01;96787.28;;;8.29;100.00
26807;BME280;14380;49.910;6.792;2024-02-26T06:04:28;96791.97;;;8.48;100.00
26807;BME280;14380;49.910;6.792;2024-02-26T06:06:55;96794.59;;;8.26;100.00
26807;BME280;14380;49.910;6.792;2024-02-26T06:09:22;96799.50;;;8.08;100.00
26807;BME280;14380;49.910;6.792;2024-02-26T06:11:49;96800.69;;;8.26;100.00
26807;BME280;14380;49.910;6.792;2024-02-26T06:14:15;96797.56;;;8.21;100.00
26807;BME280;14380;49.910;6.792;2024-02-26T06:16:43;96799.97;;;8.36;100.00
26807;BME280;14380;49.910;6.792;2024-02-26T06:19:11;96813.34;;;8.32;100.00
26807;BME280;14380;49.910;6.792;2024-02-26T06:21:38;96815.25;;;8.30;100.00
26807;BME280;14380;49.910;6.792;2024-02-26T06:24:05;96824.63;;;8.57;100.00
26807;BME280;14380;49.910;6.792;2024-02-26T06:26:31;96818.72;;;8.42;100.00
26807;BME280;14380;49.910;6.792;2024-02-26T06:28:58;96822.78;;;8.46;100.00
26807;BME280;14380;49.910;6.792;2024-02-26T06:31:25;96826.50;;;8.32;100.00
26807;BME280;14380;49.910;6.792;2024-02-26T06:33:52;96826.47;;;8.21;100.00
26807;BME280;14380;49.910;6.792;2024-02-26T06:36:20;96830.56;;;8.25;100.00
26807;BME280;14380;49.910;6.792;2024-02-26T06:38:47;96834.06;;;8.37;100.00
26807;BME280;14380;49.910;6.792;2024-02-26T06:41:14;96836.22;;;8.55;100.00
26807;BME280;14380;49.910;6.792;2024-02-26T06:43:40;96841.66;;;8.17;100.00
26807;BME280;14380;49.910;6.792;2024-02-26T06:46:07;96846.59;;;8.33;100.00
26807;BME280;14380;49.910;6.792;2024-02-26T06:48:34;96844.19;;;8.42;100.00
26807;BME280;14380;49.910;6.792;2024-02-26T06:51:02;96850.53;;;8.28;100.00
26807;BME280;14380;49.910;6.792;2024-02-26T06:53:30;96847.09;;;8.50;100.00
26807;BME280;14380;49.910;6.792;2024-02-26T06:55:57;96848.28;;;8.69;100.00
26807;BME280;14380;49.910;6.792;2024-02-26T06:58:23;96848.28;;;8.46;100.00
26807;BME280;14380;49.910;6.792;2024-02-26T07:00:50;96849.84;;;8.60;100.00
26807;BME280;14380;49.910;6.792;2024-02-26T07:03:16;96856.16;;;8.46;100.00
26807;BME280;14380;49.910;6.792;2024-02-26T07:05:43;96855.34;;;8.57;100.00
26807;BME280;14380;49.910;6.792;2024-02-26T07:08:10;96863.44;;;8.31;100.00
26807;BME280;14380;49.910;6.792;2024-02-26T07:10:38;96863.97;;;8.70;100.00
26807;BME280;14380;49.910;6.792;2024-02-26T07:13:05;96870.44;;;8.19;100.00
26807;BME280;14380;49.910;6.792;2024-02-26T07:15:31;96866.06;;;8.31;100.00
26807;BME280;14380;49.910;6.792;2024-02-26T07:17:58;96872.06;;;8.33;100.00
26807;BME280;14380;49.910;6.792;2024-02-26T07:20:28;96873.28;;;8.63;100.00
26807;BME280;14380;49.910;6.792;2024-02-26T07:22:55;96870.66;;;8.74;100.00
26807;BME280;14380;49.910;6.792;2024-02-26T07:25:21;96858.88;;;8.44;100.00
26807;BME280;14380;49.910;6.792;2024-02-26T07:27:51;96870.88;;;8.37;100.00
26807;BME280;14380;49.910;6.792;2024-02-26T07:30:17;96879.44;;;8.28;100.00
26807;BME280;14380;49.910;6.792;2024-02-26T07:32:44;96883.28;;;8.46;100.00
26807;BME280;14380;49.910;6.792;2024-02-26T07:35:11;96892.19;;;8.57;100.00
26807;BME280;14380;49.910;6.792;2024-02-26T07:37:37;96904.97;;;8.96;100.00
26807;BME280;14380;49.910;6.792;2024-02-26T07:40:05;96901.28;;;8.64;100.00
26807;BME280;14380;49.910;6.792;2024-02-26T07:42:33;96902.88;;;8.42;100.00
26807;BME280;14380;49.910;6.792;2024-02-26T07:45:02;96913.34;;;8.55;100.00
26807;BME280;14380;49.910;6.792;2024-02-26T07:47:28;96903.88;;;8.53;100.00
26807;BME280;14380;49.910;6.792;2024-02-26T07:49:55;96903.78;;;8.77;100.00
26807;BME280;14380;49.910;6.792;2024-02-26T07:52:21;96912.63;;;8.76;100.00
26807;BME280;14380;49.910;6.792;2024-02-26T07:54:48;96912.72;;;8.52;100.00
26807;BME280;14380;49.910;6.792;2024-02-26T07:57:14;96916.81;;;8.67;100.00
26807;BME280;14380;49.910;6.792;2024-02-26T07:59:42;96926.75;;;8.98;100.00
26807;BME280;14380;49.910;6.792;2024-02-26T08:02:11;96927.56;;;8.98;100.00
26807;BME280;14380;49.910;6.792;2024-02-26T08:04:38;96937.03;;;8.89;100.00
26807;BME280;14380;49.910;6.792;2024-02-26T08:07:05;96937.75;;;8.57;100.00
26807;BME280;14380;49.910;6.792;2024-02-26T08:09:32;96940.03;;;8.73;100.00
26807;BME280;14380;49.910;6.792;2024-02-26T08:11:58;96937.00;;;8.67;100.00
26807;BME280;14380;49.910;6.792;2024-02-26T08:14:25;96945.03;;;8.88;100.00
26807;BME280;14380;49.910;6.792;2024-02-26T08:16:51;96933.81;;;8.74;100.00
26807;BME280;14380;49.910;6.792;2024-02-26T08:19:19;96937.28;;;8.86;100.00
26807;BME280;14380;49.910;6.792;2024-02-26T08:21:46;96939.56;;;8.80;100.00
26807;BME280;14380;49.910;6.792;2024-02-26T08:24:12;96943.84;;;8.92;100.00
26807;BME280;14380;49.910;6.792;2024-02-26T08:26:39;96936.19;;;9.12;100.00
26807;BME280;14380;49.910;6.792;2024-02-26T08:29:05;96945.63;;;8.80;100.00
26807;BME280;14380;49.910;6.792;2024-02-26T08:31:32;96947.44;;;9.02;100.00
26807;BME280;14380;49.910;6.792;2024-02-26T08:34:01;96950.53;;;9.19;100.00
26807;BME280;14380;49.910;6.792;2024-02-26T08:36:30;96954.00;;;9.19;100.00
26807;BME280;14380;49.910;6.792;2024-02-26T08:38:56;96963.22;;;9.14;100.00
26807;BME280;14380;49.910;6.792;2024-02-26T08:41:24;96955.69;;;9.32;100.00
26807;BME280;14380;49.910;6.792;2024-02-26T08:43:51;96957.13;;;9.13;100.00
26807;BME280;14380;49.910;6.792;2024-02-26T08:46:17;96958.06;;;9.35;100.00
26807;BME280;14380;49.910;6.792;2024-02-26T08:48:44;96963.44;;;9.33;100.00
26807;BME280;14380;49.910;6.792;2024-02-26T08:51:11;96958.06;;;9.46;100.00
26807;BME280;14380;49.910;6.792;2024-02-26T08:53:39;96966.53;;;9.38;100.00
26807;BME280;14380;49.910;6.792;2024-02-26T08:56:06;96958.06;;;9.35;100.00
26807;BME280;14380;49.910;6.792;2024-02-26T08:58:32;96964.44;;;9.10;100.00
26807;BME280;14380;49.910;6.792;2024-02-26T09:01:01;96964.28;;;9.34;100.00
26807;BME280;14380;49.910;6.792;2024-02-26T09:03:28;96963.72;;;9.19;100.00
26807;BME280;14380;49.910;6.792;2024-02-26T09:05:54;96958.22;;;9.22;100.00
26807;BME280;14380;49.910;6.792;2024-02-26T09:08:22;96967.03;;;9.44;100.00
26807;BME280;14380;49.910;6.792;2024-02-26T09:10:51;96963.31;;;9.46;100.00
26807;BME280;14380;49.910;6.792;2024-02-26T09:13:18;96969.66;;;9.55;100.00
26807;BME280;14380;49.910;6.792;2024-02-26T09:15:45;96974.31;;;9.51;100.00
26807;BME280;14380;49.910;6.792;2024-02-26T09:18:11;96961.50;;;9.47;100.00
26807;BME280;14380;49.910;6.792;2024-02-26T09:20:38;96979.72;;;9.50;100.00
26807;BME280;14380;49.910;6.792;2024-02-26T09:23:04;96975.97;;;9.52;100.00
26807;BME280;14380;49.910;6.792;2024-02-26T09:25:31;96978.66;;;9.85;100.00
26807;BME280;14380;49.910;6.792;2024-02-26T09:28:01;96981.75;;;9.90;100.00
26807;BME280;14380;49.910;6.792;2024-02-26T09:30:27;96991.06;;;10.06;100.00
26807;BME280;14380;49.910;6.792;2024-02-26T09:32:54;96987.78;;;9.81;100.00
26807;BME280;14380;49.910;6.792;2024-02-26T09:35:20;96991.47;;;9.90;100.00
26807;BME280;14380;49.910;6.792;2024-02-26T09:37:47;96982.69;;;10.01;100.00
26807;BME280;14380;49.910;6.792;2024-02-26T09:40:15;96993.66;;;9.85;100.00
26807;BME280;14380;49.910;6.792;2024-02-26T09:42:43;96991.53;;;10.11;100.00
26807;BME280;14380;49.910;6.792;2024-02-26T09:45:17;96995.06;;;10.21;100.00
26807;BME280;14380;49.910;6.792;2024-02-26T09:47:44;97005.97;;;9.95;100.00
26807;BME280;14380;49.910;6.792;2024-02-26T09:50:12;97007.50;;;9.98;100.00
26807;BME280;14380;49.910;6.792;2024-02-26T09:52:41;97008.25;;;10.21;100.00
26807;BME280;14380;49.910;6.792;2024-02-26T09:55:09;97014.75;;;10.50;100.00
26807;BME280;14380;49.910;6.792;2024-02-26T09:57:36;97026.56;;;10.34;100.00
26807;BME280;14380;49.910;6.792;2024-02-26T10:00:12;97026.31;;;10.05;100.00
26807;BME280;14380;49.910;6.792;2024-02-26T10:02:41;97028.06;;;10.16;100.00
26807;BME280;14380;49.910;6.792;2024-02-26T10:05:10;97032.00;;;10.54;100.00
26807;BME280;14380;49.910;6.792;2024-02-26T10:07:38;97039.97;;;10.43;100.00
26807;BME280;14380;49.910;6.792;2024-02-26T10:10:06;97039.25;;;10.40;100.00
26807;BME280;14380;49.910;6.792;2024-02-26T10:12:32;97046.19;;;10.41;100.00
26807;BME280;14380;49.910;6.792;2024-02-26T10:14:59;97051.22;;;10.45;100.00
26807;BME280;14380;49.910;6.792;2024-02-26T10:17:28;97048.22;;;10.49;100.00
26807;BME280;14380;49.910;6.792;2024-02-26T10:19:54;97054.44;;;10.60;100.00
26807;BME280;14380;49.910;6.792;2024-02-26T10:22:22;97052.66;;;10.49;100.00
26807;BME280;14380;49.910;6.792;2024-02-26T10:24:48;97058.34;;;10.65;100.00
26807;BME280;14380;49.910;6.792;2024-02-26T10:27:15;97065.41;;;10.86;100.00
26807;BME280;14380;49.910;6.792;2024-02-26T10:29:41;97068.31;;;10.62;100.00
26807;BME280;14380;49.910;6.792;2024-02-26T10:32:08;97069.56;;;10.58;100.00
26807;BME280;14380;49.910;6.792;2024-02-26T10:34:39;97071.16;;;10.70;100.00
26807;BME280;14380;49.910;6.792;2024-02-26T10:37:07;97066.25;;;10.65;100.00
26807;BME280;14380;49.910;6.792;2024-02-26T10:39:36;97070.38;;;11.00;100.00
26807;BME280;14380;49.910;6.792;2024-02-26T10:42:03;97081.84;;;10.90;100.00
26807;BME280;14380;49.910;6.792;2024-02-26T10:44:35;97078.34;;;11.31;100.00
26807;BME280;14380;49.910;6.792;2024-02-26T10:47:01;97081.84;;;11.11;100.00
26807;BME280;14380;49.910;6.792;2024-02-26T10:49:28;97081.66;;;11.03;100.00
26807;BME280;14380;49.910;6.792;2024-02-26T10:51:56;97078.75;;;10.84;100.00
26807;BME280;14380;49.910;6.792;2024-02-26T10:54:25;97074.38;;;10.95;100.00
26807;BME280;14380;49.910;6.792;2024-02-26T10:56:53;97071.16;;;10.91;100.00
26807;BME280;14380;49.910;6.792;2024-02-26T10:59:22;97072.91;;;11.23;100.00
26807;BME280;14380;49.910;6.792;2024-02-26T11:01:50;97080.28;;;10.66;100.00
26807;BME280;14380;49.910;6.792;2024-02-26T11:04:17;97079.91;;;10.70;100.00
26807;BME280;14380;49.910;6.792;2024-02-26T11:06:44;97083.59;;;11.00;100.00
26807;BME280;14380;49.910;6.792;2024-02-26T11:09:14;97085.06;;;11.14;100.00
26807;BME280;14380;49.910;6.792;2024-02-26T11:11:41;97090.69;;;11.00;100.00
26807;BME280;14380;49.910;6.792;2024-02-26T11:14:09;97093.31;;;11.21;100.00
26807;BME280;14380;49.910;6.792;2024-02-26T11:16:37;97092.88;;;11.16;100.00
26807;BME280;14380;49.910;6.792;2024-02-26T11:19:06;97093.44;;;11.51;100.00
26807;BME280;14380;49.910;6.792;2024-02-26T11:21:33;97094.22;;;11.63;100.00
26807;BME280;14380;49.910;6.792;2024-02-26T11:24:07;97088.16;;;11.51;100.00
26807;BME280;14380;49.910;6.792;2024-02-26T11:26:37;97098.03;;;11.49;100.00
26807;BME280;14380;49.910;6.792;2024-02-26T11:29:08;97105.50;;;11.65;100.00
26807;BME280;14380;49.910;6.792;2024-02-26T11:31:37;97105.25;;;11.78;100.00
26807;BME280;14380;49.910;6.792;2024-02-26T11:34:06;97108.56;;;11.70;100.00
26807;BME280;14380;49.910;6.792;2024-02-26T11:36:33;97118.66;;;11.86;100.00
26807;BME280;14380;49.910;6.792;2024-02-26T11:39:00;97115.56;;;11.81;100.00
26807;BME280;14380;49.910;6.792;2024-02-26T11:41:27;97123.28;;;11.63;100.00
26807;BME280;14380;49.910;6.792;2024-02-26T11:43:58;97112.66;;;11.53;100.00
26807;BME280;14380;49.910;6.792;2024-02-26T11:46:27;97113.13;;;11.99;100.00
26807;BME280;14380;49.910;6.792;2024-02-26T11:48:56;97101.13;;;12.36;100.00
26807;BME280;14380;49.910;6.792;2024-02-26T11:51:25;97102.19;;;12.13;100.00
26807;BME280;14380;49.910;6.792;2024-02-26T11:53:52;97088.88;;;12.54;100.00
26807;BME280;14380;49.910;6.792;2024-02-26T11:56:23;97104.03;;;12.32;100.00
26807;BME280;14380;49.910;6.792;2024-02-26T11:59:00;97095.56;;;12.88;100.00
26807;BME280;14380;49.910;6.792;2024-02-26T12:01:44;97099.47;;;12.74;100.00
26807;BME280;14380;49.910;6.792;2024-02-26T12:04:17;97094.44;;;12.61;100.00
26807;BME280;14380;49.910;6.792;2024-02-26T12:06:46;97101.06;;;12.16;100.00
26807;BME280;14380;49.910;6.792;2024-02-26T12:09:18;97106.41;;;12.65;100.00
26807;BME280;14380;49.910;6.792;2024-02-26T12:11:57;97097.75;;;13.12;100.00
26807;BME280;14380;49.910;6.792;2024-02-26T12:14:26;97106.81;;;13.00;100.00
26807;BME280;14380;49.910;6.792;2024-02-26T12:16:55;97108.94;;;12.67;100.00
26807;BME280;14380;49.910;6.792;2024-02-26T12:19:23;97110.59;;;12.48;100.00
26807;BME280;14380;49.910;6.792;2024-02-26T12:21:51;97123.50;;;12.22;100.00
26807;BME280;14380;49.910;6.792;2024-02-26T12:24:19;97123.44;;;12.53;100.00
26807;BME280;14380;49.910;6.792;2024-02-26T12:26:46;97135.75;;;12.23;100.00
26807;BME280;14380;49.910;6.792;2024-02-26T12:29:12;97137.84;;;12.09;100.00
26807;BME280;14380;49.910;6.792;2024-02-26T12:31:41;97132.13;;;12.14;100.00
26807;BME280;14380;49.910;6.792;2024-02-26T12:34:08;97133.09;;;12.23;100.00
26807;BME280;14380;49.910;6.792;2024-02-26T12:36:36;97139.25;;;12.23;100.00
26807;BME280;14380;49.910;6.792;2024-02-26T12:39:04;97136.72;;;12.12;100.00
26807;BME280;14380;49.910;6.792;2024-02-26T12:41:32;97143.16;;;12.29;100.00
26807;BME280;14380;49.910;6.792;2024-02-26T12:43:59;97147.00;;;12.05;100.00
26807;BME280;14380;49.910;6.792;2024-02-26T12:46:25;97147.66;;;12.48;100.00
26807;BME280;14380;49.910;6.792;2024-02-26T12:48:55;97151.25;;;12.37;100.00
26807;BME280;14380;49.910;6.792;2024-02-26T12:51:23;97147.63;;;12.38;100.00
26807;BME280;14380;49.910;6.792;2024-02-26T12:53:51;97157.41;;;12.57;100.00
26807;BME280;14380;49.910;6.792;2024-02-26T12:56:18;97155.50;;;12.18;100.00
26807;BME280;14380;49.910;6.792;2024-02-26T12:58:45;97161.00;;;12.37;100.00